createdAt,value
2019-01-25T00:00:58.743Z,100624.39
2019-01-25T00:03:32.263Z,100628.17
2019-01-25T00:06:05.974Z,100631.06
2019-01-25T00:08:39.545Z,100636.56
2019-01-25T00:11:13.075Z,100629.85
2019-01-25T00:13:46.648Z,100627.34
2019-01-25T00:16:20.184Z,100631.53
2019-01-25T00:18:53.721Z,100627.70
2019-01-25T00:21:27.418Z,100630.27
2019-01-25T00:24:00.948Z,100631.42
2019-01-25T00:26:34.480Z,100631.77
2019-01-25T00:29:07.995Z,100631.34
2019-01-25T00:31:41.937Z,100634.77
2019-01-25T00:34:15.357Z,100636.44
2019-01-25T00:36:48.808Z,100630.14
2019-01-25T00:39:22.308Z,100621.41
2019-01-25T00:41:55.785Z,100620.97
2019-01-25T00:44:29.288Z,100620.14
2019-01-25T00:47:03.126Z,100627.69
2019-01-25T00:49:36.829Z,100620.14
2019-01-25T00:52:10.355Z,100618.83
2019-01-25T00:54:43.842Z,100626.38
2019-01-25T00:57:17.322Z,100629.73
2019-01-25T00:59:50.742Z,100631.41
2019-01-25T01:02:24.632Z,100630.48
2019-01-25T01:04:58.061Z,100634.98
2019-01-25T01:07:31.588Z,100640.02
2019-01-25T01:10:14.029Z,100632.09
2019-01-25T01:12:42.996Z,100631.22
2019-01-25T01:15:16.600Z,100632.53
2019-01-25T01:17:50.226Z,100628.35
2019-01-25T01:20:23.715Z,100633.38
2019-01-25T01:22:57.169Z,100635.53
2019-01-25T01:25:30.585Z,100636.31
2019-01-25T01:28:04.289Z,100636.30
2019-01-25T01:30:37.769Z,100622.81
2019-01-25T01:33:11.240Z,100625.34
2019-01-25T01:35:44.722Z,100620.66
2019-01-25T01:38:18.252Z,100618.55
2019-01-25T01:40:51.749Z,100618.99
2019-01-25T01:43:25.150Z,100622.35
2019-01-25T01:45:58.576Z,100622.34
2019-01-25T01:48:32.038Z,100625.22
2019-01-25T01:51:05.532Z,100620.60
2019-01-25T01:53:38.997Z,100623.53
2019-01-25T01:56:12.425Z,100628.97
2019-01-25T01:58:45.806Z,100628.95
2019-01-25T02:01:19.303Z,100628.55
2019-01-25T02:03:52.899Z,100630.59
2019-01-25T02:06:26.388Z,100626.05
2019-01-25T02:08:59.916Z,100629.45
2019-01-25T02:11:33.425Z,100619.80
2019-01-25T02:14:07.020Z,100622.14
2019-01-25T02:16:40.504Z,100622.54
2019-01-25T02:19:13.965Z,100626.31
2019-01-25T02:21:47.391Z,100616.69
2019-01-25T02:24:20.846Z,100618.78
2019-01-25T02:26:54.334Z,100621.77
2019-01-25T02:29:27.893Z,100617.53
2019-01-25T02:32:01.314Z,100621.23
2019-01-25T02:34:34.995Z,100624.63
2019-01-25T02:37:08.410Z,100628.83
2019-01-25T02:39:41.927Z,100624.08
2019-01-25T02:42:15.350Z,100629.94
2019-01-25T02:44:48.957Z,100629.54
2019-01-25T02:47:22.392Z,100636.30
2019-01-25T02:49:56.120Z,100631.30
2019-01-25T02:52:29.508Z,100628.78
2019-01-25T02:55:02.957Z,100625.41
2019-01-25T02:57:36.420Z,100629.19
2019-01-25T03:00:23.902Z,100622.91
2019-01-25T03:02:57.406Z,100625.05
2019-01-25T03:05:30.885Z,100623.37
2019-01-25T03:08:04.370Z,100625.47
2019-01-25T03:10:37.828Z,100623.38
2019-01-25T03:13:11.318Z,100620.88
2019-01-25T03:15:44.927Z,100621.23
2019-01-25T03:18:18.357Z,100627.88
2019-01-25T03:20:51.803Z,100625.81
2019-01-25T03:23:25.220Z,100629.61
2019-01-25T03:25:58.749Z,100621.42
2019-01-25T03:28:32.165Z,100621.61
2019-01-25T03:31:05.797Z,100620.02
2019-01-25T03:33:39.264Z,100613.38
2019-01-25T03:36:12.729Z,100606.27
2019-01-25T03:38:46.151Z,100602.52
2019-01-25T03:41:19.694Z,100612.57
2019-01-25T03:43:53.104Z,100607.95
2019-01-25T03:46:26.575Z,100611.38
2019-01-25T03:48:59.995Z,100616.47
2019-01-25T03:51:33.467Z,100612.75
2019-01-25T03:54:06.945Z,100617.80
2019-01-25T03:56:40.422Z,100617.78
2019-01-25T03:59:13.831Z,100629.94
2019-01-25T04:01:47.554Z,100621.57
2019-01-25T04:04:21.021Z,100632.88
2019-01-25T04:06:54.540Z,100625.70
2019-01-25T04:09:27.964Z,100621.09
2019-01-25T04:12:01.515Z,100626.12
2019-01-25T04:14:34.941Z,100628.19
2019-01-25T04:17:08.474Z,100633.64
2019-01-25T04:19:41.987Z,100635.20
2019-01-25T04:22:15.444Z,100629.73
2019-01-25T04:24:48.864Z,100632.66
2019-01-25T04:27:22.404Z,100637.64
2019-01-25T04:29:55.754Z,100635.59
2019-01-25T04:32:29.386Z,100638.97
2019-01-25T04:35:02.981Z,100636.78
2019-01-25T04:37:36.522Z,100638.52
2019-01-25T04:40:12.832Z,100642.30
2019-01-25T04:42:46.847Z,100637.26
2019-01-25T04:45:23.636Z,100619.59
2019-01-25T04:47:57.155Z,100630.52
2019-01-25T04:50:30.575Z,100627.44
2019-01-25T04:53:04.248Z,100631.13
2019-01-25T04:55:37.732Z,100624.08
2019-01-25T04:58:13.746Z,100627.02
2019-01-25T05:00:47.305Z,100625.38
2019-01-25T05:03:20.915Z,100632.38
2019-01-25T05:05:54.412Z,100641.66
2019-01-25T05:08:30.695Z,100641.67
2019-01-25T05:11:04.285Z,100646.36
2019-01-25T05:13:37.729Z,100640.97
2019-01-25T05:16:13.283Z,100653.98
2019-01-25T05:18:46.761Z,100649.78
2019-01-25T05:21:20.858Z,100648.94
2019-01-25T05:23:54.561Z,100654.81
2019-01-25T05:26:28.002Z,100659.84
2019-01-25T05:29:01.878Z,100661.52
2019-01-25T05:31:35.296Z,100663.66
2019-01-25T05:34:09.282Z,100659.35
2019-01-25T05:36:42.774Z,100655.06
2019-01-25T05:39:16.250Z,100648.94
2019-01-25T05:41:52.078Z,100652.52
2019-01-25T05:44:25.465Z,100648.82
2019-01-25T05:46:58.892Z,100660.47
2019-01-25T05:49:32.351Z,100661.41
2019-01-25T05:52:07.919Z,100658.55
2019-01-25T05:54:41.454Z,100660.20
2019-01-25T05:57:14.952Z,100663.65
2019-01-25T05:59:48.485Z,100653.59
2019-01-25T06:02:21.928Z,100659.11
2019-01-25T06:04:55.446Z,100658.28
2019-01-25T06:07:28.862Z,100663.80
2019-01-25T06:10:02.390Z,100663.79
2019-01-25T06:12:35.870Z,100665.89
2019-01-25T06:15:11.653Z,100667.48
2019-01-25T06:17:45.069Z,100665.37
2019-01-25T06:20:18.592Z,100670.00
2019-01-25T06:22:54.712Z,100667.20
2019-01-25T06:25:28.778Z,100666.78
2019-01-25T06:28:04.731Z,100665.94
2019-01-25T06:30:38.332Z,100673.98
2019-01-25T06:33:11.746Z,100672.73
2019-01-25T06:35:45.364Z,100674.78
2019-01-25T06:38:18.858Z,100668.45
2019-01-25T06:40:52.323Z,100675.53
2019-01-25T06:43:25.877Z,100672.59
2019-01-25T06:45:59.259Z,100665.06
2019-01-25T06:48:32.677Z,100665.94
2019-01-25T06:51:06.195Z,100668.31
2019-01-25T06:53:39.617Z,100668.83
2019-01-25T06:56:13.069Z,100670.55
2019-01-25T06:58:50.736Z,100672.24
2019-01-25T07:01:28.350Z,100670.55
2019-01-25T07:04:01.836Z,100678.09
2019-01-25T07:06:35.300Z,100669.71
2019-01-25T07:09:09.387Z,100666.28
2019-01-25T07:11:42.944Z,100656.95
2019-01-25T07:14:16.426Z,100666.28
2019-01-25T07:16:50.054Z,100667.56
2019-01-25T07:19:23.473Z,100665.48
2019-01-25T07:21:57.326Z,100665.81
2019-01-25T07:24:30.831Z,100660.72
2019-01-25T07:27:04.438Z,100657.84
2019-01-25T07:29:37.953Z,100662.52
2019-01-25T07:32:12.041Z,100664.69
2019-01-25T07:34:45.496Z,100657.94
2019-01-25T07:37:18.867Z,100663.02
2019-01-25T07:39:52.286Z,100665.75
2019-01-25T07:42:25.839Z,100668.66
2019-01-25T07:44:59.307Z,100659.12
2019-01-25T07:47:32.888Z,100668.45
2019-01-25T07:50:08.823Z,100665.03
2019-01-25T07:52:42.490Z,100663.28
2019-01-25T07:55:16.034Z,100661.70
2019-01-25T07:57:49.455Z,100664.63
2019-01-25T08:00:22.960Z,100669.57
2019-01-25T08:02:56.430Z,100674.44
2019-01-25T08:05:29.929Z,100667.15
2019-01-25T08:08:03.515Z,100673.59
2019-01-25T08:10:36.946Z,100665.27
2019-01-25T08:13:10.587Z,100669.05
2019-01-25T08:15:44.008Z,100670.64
2019-01-25T08:18:17.471Z,100674.78
2019-01-25T08:20:50.879Z,100680.34
2019-01-25T08:23:24.488Z,100680.72
2019-01-25T08:25:58.017Z,100680.38
2019-01-25T08:28:31.563Z,100679.23
2019-01-25T08:31:05.056Z,100680.98
2019-01-25T08:33:38.510Z,100686.05
2019-01-25T08:36:11.945Z,100679.46
2019-01-25T08:38:45.402Z,100682.27
2019-01-25T08:41:18.800Z,100684.01
2019-01-25T08:43:52.289Z,100684.44
2019-01-25T08:46:25.758Z,100669.01
2019-01-25T08:48:59.173Z,100670.33
2019-01-25T08:51:32.659Z,100663.27
2019-01-25T08:54:06.420Z,100659.09
2019-01-25T08:56:39.870Z,100659.48
2019-01-25T08:59:13.419Z,100664.95
2019-01-25T09:01:47.028Z,100669.62
2019-01-25T09:04:20.414Z,100672.98
2019-01-25T09:06:53.831Z,100664.16
2019-01-25T09:09:27.366Z,100665.02
2019-01-25T09:12:00.767Z,100665.50
2019-01-25T09:14:34.253Z,100662.59
2019-01-25T09:17:07.697Z,100657.56
2019-01-25T09:19:41.221Z,100651.17
2019-01-25T09:22:14.644Z,100662.51
2019-01-25T09:24:48.182Z,100663.05
2019-01-25T09:27:21.596Z,100672.02
2019-01-25T09:29:55.139Z,100666.77
2019-01-25T09:32:28.563Z,100666.47
2019-01-25T09:35:02.196Z,100660.78
2019-01-25T09:37:35.691Z,100667.20
2019-01-25T09:40:17.719Z,100672.74
2019-01-25T09:42:51.626Z,100669.07
2019-01-25T09:45:25.080Z,100670.70
2019-01-25T09:47:58.500Z,100666.26
2019-01-25T09:50:32.053Z,100675.68
2019-01-25T09:53:05.540Z,100668.55
2019-01-25T09:55:39.005Z,100669.19
2019-01-25T09:58:15.796Z,100667.11
2019-01-25T10:00:55.523Z,100665.05
2019-01-25T10:03:28.948Z,100666.38
2019-01-25T10:06:02.424Z,100667.86
2019-01-25T10:08:35.901Z,100669.22
2019-01-25T10:11:09.746Z,100664.41
2019-01-25T10:13:43.194Z,100661.77
2019-01-25T10:16:16.722Z,100670.89
2019-01-25T10:18:50.221Z,100661.70
2019-01-25T10:21:23.741Z,100658.06
2019-01-25T10:23:57.165Z,100653.63
2019-01-25T10:26:30.626Z,100642.45
2019-01-25T10:29:04.110Z,100622.77
2019-01-25T10:31:37.607Z,100615.22
2019-01-25T10:34:10.966Z,100615.33
2019-01-25T10:36:44.578Z,100611.17
2019-01-25T10:39:18.006Z,100613.75
2019-01-25T10:41:51.730Z,100615.00
2019-01-25T10:44:25.219Z,100609.44
2019-01-25T10:46:58.680Z,100604.98
2019-01-25T10:49:32.134Z,100608.91
2019-01-25T10:52:05.823Z,100602.56
2019-01-25T10:54:39.498Z,100607.97
2019-01-25T10:57:12.985Z,100611.06
2019-01-25T10:59:46.610Z,100610.75
2019-01-25T11:02:20.023Z,100617.56
2019-01-25T11:04:53.481Z,100621.20
2019-01-25T11:07:26.938Z,100617.84
2019-01-25T11:10:00.782Z,100616.10
2019-01-25T11:12:34.292Z,100613.17
2019-01-25T11:15:11.061Z,100606.02
2019-01-25T11:17:44.501Z,100601.78
2019-01-25T11:20:19.792Z,100602.14
2019-01-25T11:22:53.575Z,100600.98
2019-01-25T11:25:29.858Z,100595.64
2019-01-25T11:28:03.345Z,100587.67
2019-01-25T11:30:36.801Z,100592.86
2019-01-25T11:33:10.220Z,100589.14
2019-01-25T11:35:43.764Z,100580.75
2019-01-25T11:38:17.196Z,100579.11
2019-01-25T11:40:50.668Z,100579.97
2019-01-25T11:43:24.084Z,100584.11
2019-01-25T11:45:57.993Z,100573.93
2019-01-25T11:48:31.421Z,100568.63
2019-01-25T11:51:05.297Z,100559.98
2019-01-25T11:53:38.735Z,100568.25
2019-01-25T11:56:12.370Z,100558.56
2019-01-25T11:58:45.850Z,100565.32
2019-01-25T12:01:19.373Z,100559.45
2019-01-25T12:03:53.067Z,100559.91
2019-01-25T12:06:26.606Z,100552.20
2019-01-25T12:09:00.027Z,100550.47
2019-01-25T12:11:33.555Z,100546.80
2019-01-25T12:14:07.282Z,100547.70
2019-01-25T12:16:40.737Z,100540.86
2019-01-25T12:19:14.171Z,100547.31
2019-01-25T12:21:47.683Z,100544.59
2019-01-25T12:24:21.111Z,100542.44
2019-01-25T12:26:54.581Z,100527.23
2019-01-25T12:29:28.140Z,100525.55
2019-01-25T12:32:01.729Z,100533.20
2019-01-25T12:34:35.081Z,100537.08
2019-01-25T12:37:08.716Z,100524.87
2019-01-25T12:39:42.073Z,100524.81
2019-01-25T12:42:15.570Z,100521.52
2019-01-25T12:44:48.941Z,100536.19
2019-01-25T12:47:22.806Z,100549.73
2019-01-25T12:49:56.233Z,100537.56
2019-01-25T12:52:30.010Z,100525.44
2019-01-25T12:55:03.508Z,100518.99
2019-01-25T12:57:36.990Z,100519.22
2019-01-25T13:00:13.754Z,100522.76
2019-01-25T13:02:47.355Z,100519.83
2019-01-25T13:05:21.753Z,100524.41
2019-01-25T13:07:55.211Z,100512.27
2019-01-25T13:10:29.002Z,100505.14
2019-01-25T13:13:02.623Z,100502.16
2019-01-25T13:15:36.274Z,100498.55
2019-01-25T13:18:09.803Z,100498.87
2019-01-25T13:20:43.297Z,100493.30
2019-01-25T13:23:16.840Z,100492.19
2019-01-25T13:25:50.335Z,100483.91
2019-01-25T13:28:23.833Z,100492.78
2019-01-25T13:30:57.330Z,100494.03
2019-01-25T13:33:31.183Z,100490.14
2019-01-25T13:36:25.452Z,100496.02
2019-01-25T13:38:58.826Z,100497.34
2019-01-25T13:41:32.243Z,100495.25
2019-01-25T13:44:05.976Z,100490.98
2019-01-25T13:46:39.473Z,100499.00
2019-01-25T13:49:13.255Z,100489.88
2019-01-25T13:51:46.744Z,100484.11
2019-01-25T13:54:20.204Z,100484.06
2019-01-25T13:56:53.549Z,100478.15
2019-01-25T13:59:26.947Z,100477.45
2019-01-25T14:02:00.433Z,100472.43
2019-01-25T14:04:33.892Z,100470.70
2019-01-25T14:07:07.375Z,100475.84
2019-01-25T14:09:40.842Z,100472.95
2019-01-25T14:12:14.183Z,100467.82
2019-01-25T14:14:49.049Z,100466.83
2019-01-25T14:17:22.621Z,100466.28
2019-01-25T14:19:56.440Z,100458.75
2019-01-25T14:22:29.849Z,100451.69
2019-01-25T14:25:03.406Z,100450.06
2019-01-25T14:27:36.887Z,100457.37
2019-01-25T14:30:19.038Z,100449.03
2019-01-25T14:32:52.467Z,100452.02
2019-01-25T14:35:26.005Z,100447.78
2019-01-25T14:37:59.504Z,100450.03
2019-01-25T14:40:32.953Z,100447.11
2019-01-25T14:43:06.360Z,100448.36
2019-01-25T14:45:40.182Z,100445.06
2019-01-25T14:48:13.602Z,100439.97
2019-01-25T14:50:47.114Z,100439.52
2019-01-25T14:53:20.537Z,100434.22
2019-01-25T14:55:54.368Z,100439.20
2019-01-25T14:58:27.858Z,100438.83
2019-01-25T15:01:01.319Z,100437.94
2019-01-25T15:03:34.738Z,100430.13
2019-01-25T15:06:08.180Z,100436.30
2019-01-25T15:08:41.848Z,100439.75
2019-01-25T15:11:15.518Z,100436.11
2019-01-25T15:13:49.867Z,100436.30
2019-01-25T15:16:23.446Z,100432.47
2019-01-25T15:18:56.864Z,100435.86
2019-01-25T15:56:29.255Z,100416.67
2019-01-25T15:59:02.892Z,100416.91
2019-01-25T16:01:36.575Z,100417.15
2019-01-25T16:04:10.055Z,100413.75
2019-01-25T16:06:43.651Z,100413.44
2019-01-25T16:09:23.312Z,100410.63
2019-01-25T16:11:52.318Z,100406.49
2019-01-25T16:14:25.667Z,100404.77
2019-01-25T16:16:59.231Z,100403.02
2019-01-25T16:19:32.674Z,100397.58
2019-01-25T16:22:06.380Z,100390.94
2019-01-25T16:24:39.918Z,100392.07
2019-01-25T16:27:13.752Z,100392.14
2019-01-25T16:29:47.175Z,100393.88
2019-01-25T16:32:20.700Z,100401.05
2019-01-25T16:34:54.361Z,100397.66
2019-01-25T16:37:28.019Z,100391.88
2019-01-25T16:40:01.509Z,100387.70
2019-01-25T16:42:34.942Z,100381.72
2019-01-25T16:45:20.332Z,100374.59
2019-01-25T16:47:53.819Z,100370.45
2019-01-25T16:50:27.681Z,100367.95
2019-01-25T16:53:01.173Z,100366.34
2019-01-25T16:55:35.002Z,100362.19
2019-01-25T16:58:08.599Z,100356.33
2019-01-25T17:00:50.929Z,100352.91
2019-01-25T17:03:26.451Z,100359.15
2019-01-25T17:06:00.124Z,100359.95
2019-01-25T17:08:34.480Z,100354.12
2019-01-25T17:11:08.166Z,100354.12
2019-01-25T17:13:41.736Z,100352.81
2019-01-25T17:16:15.663Z,100351.50
2019-01-25T17:18:49.409Z,100347.25
2019-01-25T17:21:23.412Z,100336.80
2019-01-25T17:23:59.656Z,100335.13
2019-01-25T17:26:33.563Z,100328.93
2019-01-25T17:31:27.132Z,100308.25
2019-01-25T17:34:00.768Z,100307.62
2019-01-25T17:36:34.511Z,100315.16
2019-01-25T17:39:11.252Z,100335.75
2019-01-25T17:41:45.104Z,100336.06
2019-01-25T17:44:18.860Z,100332.30
2019-01-25T17:46:52.429Z,100315.12
2019-01-25T17:49:26.035Z,100305.95
2019-01-25T17:51:59.761Z,100308.83
2019-01-25T17:54:33.344Z,100299.13
2019-01-25T17:57:07.141Z,100298.30
2019-01-25T17:59:40.702Z,100293.74
2019-01-25T18:02:14.452Z,100281.48
2019-01-25T18:04:48.297Z,100274.42
2019-01-25T18:07:21.843Z,100285.73
2019-01-25T18:09:55.386Z,100283.70
2019-01-25T18:12:29.007Z,100287.95
2019-01-25T18:15:02.747Z,100295.32
2019-01-25T18:17:36.696Z,100294.37
2019-01-25T18:20:13.367Z,100280.66
2019-01-25T18:22:46.999Z,100279.92
2019-01-25T18:25:32.927Z,100262.75
2019-01-25T18:28:09.842Z,100242.59
2019-01-25T18:30:46.789Z,100243.52
2019-01-25T18:33:20.618Z,100238.09
2019-01-25T18:35:54.106Z,100234.77
2019-01-25T18:38:27.733Z,100231.00
2019-01-25T18:41:01.213Z,100216.25
2019-01-25T18:43:34.562Z,100201.17
2019-01-25T18:46:08.314Z,100199.97
2019-01-25T18:48:41.742Z,100201.92
2019-01-25T18:51:15.246Z,100195.20
2019-01-25T18:53:49.625Z,100188.03
2019-01-25T18:56:23.304Z,100188.11
2019-01-25T18:58:56.861Z,100178.30
2019-01-25T19:01:30.326Z,100165.33
2019-01-25T19:04:03.783Z,100165.70
2019-01-25T19:06:37.233Z,100160.25
2019-01-25T19:09:10.657Z,100158.16
2019-01-25T19:11:44.054Z,100141.08
2019-01-25T19:14:17.405Z,100133.92
2019-01-25T19:16:50.838Z,100127.30
2019-01-25T19:19:24.251Z,100125.17
2019-01-25T19:21:57.691Z,100118.88
2019-01-25T19:24:31.125Z,100116.74
2019-01-25T19:27:04.576Z,100103.30
2019-01-25T19:29:37.992Z,100105.48
2019-01-25T19:32:11.439Z,100095.34
2019-01-25T19:34:44.936Z,100089.52
2019-01-25T19:37:18.428Z,100084.97
2019-01-25T19:39:51.848Z,100079.15
2019-01-25T19:42:25.290Z,100081.78
2019-01-25T19:44:58.727Z,100076.30
2019-01-25T19:47:32.188Z,100071.39
2019-01-25T19:50:08.876Z,100062.47
2019-01-25T19:52:42.397Z,100061.67
2019-01-25T19:55:18.577Z,100052.92
2019-01-25T19:57:52.081Z,100044.84
2019-01-25T20:00:37.188Z,100040.73
2019-01-25T20:03:10.715Z,100032.39
2019-01-25T20:05:44.285Z,100034.03
2019-01-25T20:08:17.986Z,100013.58
2019-01-25T20:10:51.636Z,100006.91
2019-01-25T20:13:25.372Z,100005.20
2019-01-25T20:15:58.916Z,100006.59
2019-01-25T20:18:32.604Z,100002.37
2019-01-25T20:21:06.182Z,99995.21
2019-01-25T20:23:39.709Z,99991.86
2019-01-25T20:26:13.188Z,99986.83
2019-01-25T20:28:46.560Z,99981.48
2019-01-25T20:31:19.984Z,99978.97
2019-01-25T20:33:53.421Z,99971.42
2019-01-25T20:36:26.961Z,99962.23
2019-01-25T20:39:00.408Z,99960.50
2019-01-25T20:41:33.750Z,99953.86
2019-01-25T20:44:07.200Z,99946.82
2019-01-25T20:46:40.612Z,99945.95
2019-01-25T20:49:14.060Z,99951.84
2019-01-25T20:51:47.463Z,99941.84
2019-01-25T20:54:20.951Z,99940.50
2019-01-25T20:56:54.283Z,99933.43
2019-01-25T20:59:27.722Z,99926.36
2019-01-25T21:02:01.207Z,99927.69
2019-01-25T21:04:34.585Z,99921.38
2019-01-25T21:07:07.995Z,99920.55
2019-01-25T21:09:41.437Z,99912.58
2019-01-25T21:12:14.835Z,99907.97
2019-01-25T21:14:48.228Z,99896.62
2019-01-25T21:17:21.679Z,99887.02
2019-01-25T21:19:55.095Z,99882.47
2019-01-25T21:22:28.544Z,99872.32
2019-01-25T21:25:01.953Z,99877.35
2019-01-25T21:27:35.434Z,99885.78
2019-01-25T21:30:14.575Z,99882.51
2019-01-25T21:32:48.010Z,99879.61
2019-01-25T21:35:21.360Z,99863.67
2019-01-25T21:37:54.951Z,99858.64
2019-01-25T21:40:30.245Z,99851.93
2019-01-25T21:43:03.982Z,99851.12
2019-01-25T21:45:42.924Z,99838.49
2019-01-25T21:48:12.721Z,99848.14
2019-01-25T21:50:46.134Z,99848.20
2019-01-25T21:53:21.180Z,99838.98
2019-01-25T21:55:54.671Z,99837.71
2019-01-25T21:58:28.116Z,99823.46
2019-01-25T22:01:01.523Z,99812.14
2019-01-25T22:03:34.960Z,99815.08
2019-01-25T22:06:08.468Z,99810.92
2019-01-25T22:08:41.954Z,99799.14
2019-01-25T22:11:15.368Z,99788.23
2019-01-25T22:13:52.877Z,99778.63
2019-01-25T22:16:24.009Z,99772.36
2019-01-25T22:18:57.374Z,99762.67
2019-01-25T22:21:30.779Z,99756.39
2019-01-25T22:24:04.286Z,99753.45
2019-01-25T22:26:37.707Z,99747.58
2019-01-25T22:29:11.144Z,99743.39
2019-01-25T22:31:44.549Z,99732.91
2019-01-25T22:34:17.999Z,99728.28
2019-01-25T22:36:51.366Z,99734.59
2019-01-25T22:39:24.825Z,99725.35
2019-01-25T22:41:58.222Z,99728.70
2019-01-25T22:44:31.656Z,99711.91
2019-01-25T22:47:06.534Z,99703.92
2019-01-25T22:49:39.975Z,99702.67
2019-01-25T22:52:13.379Z,99706.88
2019-01-25T22:54:46.816Z,99695.94
2019-01-25T22:57:20.153Z,99690.52
2019-01-25T22:59:53.541Z,99684.59
2019-01-25T23:02:26.949Z,99690.05
2019-01-25T23:05:06.485Z,99680.80
2019-01-25T23:07:39.891Z,99674.08
2019-01-25T23:10:13.331Z,99679.10
2019-01-25T23:12:46.743Z,99665.27
2019-01-25T23:15:20.316Z,99663.94
2019-01-25T23:17:53.653Z,99668.19
2019-01-25T23:20:27.156Z,99657.67
2019-01-25T23:23:00.528Z,99646.36
2019-01-25T23:25:33.966Z,99645.50
2019-01-25T23:28:07.376Z,99627.43
2019-01-25T23:30:40.882Z,99625.72
2019-01-25T23:33:14.305Z,99627.77
2019-01-25T23:35:47.716Z,99623.58
2019-01-25T23:38:21.059Z,99626.08
2019-01-25T23:40:54.540Z,99605.84
2019-01-25T23:43:28.107Z,99604.16
2019-01-25T23:46:01.545Z,99599.96
2019-01-25T23:48:35.032Z,99596.14
2019-01-25T23:51:08.559Z,99593.97
2019-01-25T23:53:41.996Z,99593.95
2019-01-25T23:56:15.526Z,99592.62
2019-01-25T23:58:49.055Z,99581.30
